sensor_id;sensor_type;location;lat;lon;timestamp;P1;durP1;ratioP1;P2;durP2;ratioP2
70757;SDS011;59316;52.964;7.102;2023-02-02T00:02:35;15.37;;;1.50;;
70757;SDS011;59316;52.964;7.102;2023-02-02T00:07:38;14.32;;;2.05;;
70757;SDS011;59316;52.964;7.102;2023-02-02T00:12:40;21.00;;;2.42;;
70757;SDS011;59316;52.964;7.102;2023-02-02T00:17:42;16.50;;;2.30;;
70757;SDS011;59316;52.964;7.102;2023-02-02T00:22:45;20.37;;;1.90;;
70757;SDS011;59316;52.964;7.102;2023-02-02T00:27:47;15.23;;;2.43;;
70757;SDS011;59316;52.964;7.102;2023-02-02T00:32:50;12.47;;;2.77;;
70757;SDS011;59316;52.964;7.102;2023-02-02T00:37:52;23.98;;;2.35;;
70757;SDS011;59316;52.964;7.102;2023-02-02T00:42:54;14.65;;;2.30;;
70757;SDS011;59316;52.964;7.102;2023-02-02T00:47:56;21.58;;;2.63;;
70757;SDS011;59316;52.964;7.102;2023-02-02T00:52:58;19.65;;;2.75;;
70757;SDS011;59316;52.964;7.102;2023-02-02T00:58:01;22.90;;;3.07;;
70757;SDS011;59316;52.964;7.102;2023-02-02T01:03:03;19.23;;;2.87;;
70757;SDS011;59316;52.964;7.102;2023-02-02T01:08:06;8.90;;;1.88;;
70757;SDS011;59316;52.964;7.102;2023-02-02T01:13:08;12.82;;;1.85;;
70757;SDS011;59316;52.964;7.102;2023-02-02T01:18:11;21.07;;;2.77;;
70757;SDS011;59316;52.964;7.102;2023-02-02T01:23:13;29.30;;;3.50;;
70757;SDS011;59316;52.964;7.102;2023-02-02T01:28:15;18.33;;;2.50;;
70757;SDS011;59316;52.964;7.102;2023-02-02T01:33:19;21.75;;;3.08;;
70757;SDS011;59316;52.964;7.102;2023-02-02T01:38:22;17.70;;;2.40;;
70757;SDS011;59316;52.964;7.102;2023-02-02T01:43:49;26.17;;;2.63;;
70757;SDS011;59316;52.964;7.102;2023-02-02T01:53:58;33.60;;;3.05;;
70757;SDS011;59316;52.964;7.102;2023-02-02T01:59:01;19.03;;;2.77;;
70757;SDS011;59316;52.964;7.102;2023-02-02T02:04:04;17.48;;;2.40;;
70757;SDS011;59316;52.964;7.102;2023-02-02T02:09:06;28.25;;;2.63;;
70757;SDS011;59316;52.964;7.102;2023-02-02T02:14:08;22.67;;;2.53;;
70757;SDS011;59316;52.964;7.102;2023-02-02T02:39:47;15.55;;;2.28;;
70757;SDS011;59316;52.964;7.102;2023-02-02T02:44:50;22.75;;;2.92;;
70757;SDS011;59316;52.964;7.102;2023-02-02T02:49:54;17.42;;;2.33;;
70757;SDS011;59316;52.964;7.102;2023-02-02T02:54:56;13.18;;;2.65;;
70757;SDS011;59316;52.964;7.102;2023-02-02T03:00:09;22.38;;;2.83;;
70757;SDS011;59316;52.964;7.102;2023-02-02T03:10:25;17.52;;;2.00;;
70757;SDS011;59316;52.964;7.102;2023-02-02T03:15:29;13.45;;;2.13;;
70757;SDS011;59316;52.964;7.102;2023-02-02T03:20:31;22.85;;;3.10;;
70757;SDS011;59316;52.964;7.102;2023-02-02T03:25:32;22.50;;;3.45;;
70757;SDS011;59316;52.964;7.102;2023-02-02T03:30:34;29.10;;;3.53;;
70757;SDS011;59316;52.964;7.102;2023-02-02T03:35:37;20.55;;;2.10;;
70757;SDS011;59316;52.964;7.102;2023-02-02T03:40:39;16.02;;;2.28;;
70757;SDS011;59316;52.964;7.102;2023-02-02T03:45:41;24.70;;;2.58;;
70757;SDS011;59316;52.964;7.102;2023-02-02T03:50:43;27.00;;;3.03;;
70757;SDS011;59316;52.964;7.102;2023-02-02T03:55:45;16.25;;;2.70;;
70757;SDS011;59316;52.964;7.102;2023-02-02T04:00:47;21.50;;;2.60;;
70757;SDS011;59316;52.964;7.102;2023-02-02T04:05:49;21.45;;;2.65;;
70757;SDS011;59316;52.964;7.102;2023-02-02T04:10:51;22.58;;;5.03;;
70757;SDS011;59316;52.964;7.102;2023-02-02T04:15:59;24.45;;;2.53;;
70757;SDS011;59316;52.964;7.102;2023-02-02T04:21:02;10.20;;;2.50;;
70757;SDS011;59316;52.964;7.102;2023-02-02T04:26:04;11.15;;;1.85;;
70757;SDS011;59316;52.964;7.102;2023-02-02T04:31:06;12.68;;;2.05;;
70757;SDS011;59316;52.964;7.102;2023-02-02T04:36:08;8.23;;;1.35;;
70757;SDS011;59316;52.964;7.102;2023-02-02T04:41:10;6.88;;;1.30;;
70757;SDS011;59316;52.964;7.102;2023-02-02T04:46:13;5.70;;;0.90;;
70757;SDS011;59316;52.964;7.102;2023-02-02T04:51:15;7.50;;;0.90;;
70757;SDS011;59316;52.964;7.102;2023-02-02T04:56:17;2.47;;;0.90;;
70757;SDS011;59316;52.964;7.102;2023-02-02T05:01:19;2.33;;;1.00;;
70757;SDS011;59316;52.964;7.102;2023-02-02T05:06:21;5.25;;;0.60;;
70757;SDS011;59316;52.964;7.102;2023-02-02T05:11:23;7.03;;;1.33;;
70757;SDS011;59316;52.964;7.102;2023-02-02T05:16:25;8.65;;;0.88;;
70757;SDS011;59316;52.964;7.102;2023-02-02T05:21:29;7.47;;;1.50;;
70757;SDS011;59316;52.964;7.102;2023-02-02T05:26:31;2.10;;;0.60;;
70757;SDS011;59316;52.964;7.102;2023-02-02T05:31:34;0.93;;;0.65;;
70757;SDS011;59316;52.964;7.102;2023-02-02T05:36:36;3.03;;;0.53;;
70757;SDS011;59316;52.964;7.102;2023-02-02T05:41:37;3.58;;;0.88;;
70757;SDS011;59316;52.964;7.102;2023-02-02T05:46:39;3.92;;;0.60;;
70757;SDS011;59316;52.964;7.102;2023-02-02T05:51:47;4.03;;;1.08;;
70757;SDS011;59316;52.964;7.102;2023-02-02T05:56:51;7.38;;;0.82;;
70757;SDS011;59316;52.964;7.102;2023-02-02T06:01:53;4.88;;;0.60;;
70757;SDS011;59316;52.964;7.102;2023-02-02T06:06:55;3.40;;;0.70;;
70757;SDS011;59316;52.964;7.102;2023-02-02T06:11:57;2.15;;;0.70;;
70757;SDS011;59316;52.964;7.102;2023-02-02T06:16:59;5.30;;;1.27;;
70757;SDS011;59316;52.964;7.102;2023-02-02T06:22:01;2.42;;;0.65;;
70757;SDS011;59316;52.964;7.102;2023-02-02T06:27:02;2.90;;;0.68;;
70757;SDS011;59316;52.964;7.102;2023-02-02T06:32:05;5.88;;;0.88;;
70757;SDS011;59316;52.964;7.102;2023-02-02T06:37:07;5.40;;;0.98;;
70757;SDS011;59316;52.964;7.102;2023-02-02T06:42:08;7.10;;;0.90;;
70757;SDS011;59316;52.964;7.102;2023-02-02T06:47:22;6.00;;;1.20;;
70757;SDS011;59316;52.964;7.102;2023-02-02T06:52:27;4.07;;;1.10;;
70757;SDS011;59316;52.964;7.102;2023-02-02T06:57:29;4.68;;;0.60;;
70757;SDS011;59316;52.964;7.102;2023-02-02T07:02:30;4.93;;;1.02;;
70757;SDS011;59316;52.964;7.102;2023-02-02T07:07:33;6.90;;;1.10;;
70757;SDS011;59316;52.964;7.102;2023-02-02T07:12:35;3.30;;;0.90;;
70757;SDS011;59316;52.964;7.102;2023-02-02T07:17:37;4.63;;;0.93;;
70757;SDS011;59316;52.964;7.102;2023-02-02T07:22:39;3.58;;;1.25;;
70757;SDS011;59316;52.964;7.102;2023-02-02T07:27:41;6.15;;;1.05;;
70757;SDS011;59316;52.964;7.102;2023-02-02T07:32:48;4.65;;;1.00;;
70757;SDS011;59316;52.964;7.102;2023-02-02T07:37:51;5.88;;;1.25;;
70757;SDS011;59316;52.964;7.102;2023-02-02T07:42:53;6.40;;;1.00;;
70757;SDS011;59316;52.964;7.102;2023-02-02T07:47:55;2.30;;;0.85;;
70757;SDS011;59316;52.964;7.102;2023-02-02T07:52:58;6.63;;;1.03;;
70757;SDS011;59316;52.964;7.102;2023-02-02T07:58:00;6.82;;;1.02;;
70757;SDS011;59316;52.964;7.102;2023-02-02T08:03:01;6.20;;;0.95;;
70757;SDS011;59316;52.964;7.102;2023-02-02T08:08:03;10.15;;;1.23;;
70757;SDS011;59316;52.964;7.102;2023-02-02T08:13:05;5.03;;;1.48;;
70757;SDS011;59316;52.964;7.102;2023-02-02T08:18:07;3.58;;;1.00;;
70757;SDS011;59316;52.964;7.102;2023-02-02T08:23:09;4.45;;;1.08;;
70757;SDS011;59316;52.964;7.102;2023-02-02T08:28:11;2.67;;;1.10;;
70757;SDS011;59316;52.964;7.102;2023-02-02T08:33:13;3.10;;;0.75;;
70757;SDS011;59316;52.964;7.102;2023-02-02T08:38:15;5.28;;;1.08;;
70757;SDS011;59316;52.964;7.102;2023-02-02T08:43:16;6.78;;;1.52;;
70757;SDS011;59316;52.964;7.102;2023-02-02T08:48:18;5.25;;;1.42;;
70757;SDS011;59316;52.964;7.102;2023-02-02T08:53:21;5.55;;;1.00;;
70757;SDS011;59316;52.964;7.102;2023-02-02T08:58:23;8.88;;;1.05;;
70757;SDS011;59316;52.964;7.102;2023-02-02T09:03:25;6.13;;;1.10;;
70757;SDS011;59316;52.964;7.102;2023-02-02T09:08:27;6.45;;;0.90;;
70757;SDS011;59316;52.964;7.102;2023-02-02T09:13:29;5.20;;;1.10;;
70757;SDS011;59316;52.964;7.102;2023-02-02T09:18:31;12.50;;;1.42;;
70757;SDS011;59316;52.964;7.102;2023-02-02T09:23:34;3.63;;;0.95;;
70757;SDS011;59316;52.964;7.102;2023-02-02T09:28:37;4.20;;;0.90;;
70757;SDS011;59316;52.964;7.102;2023-02-02T09:33:41;5.05;;;1.40;;
70757;SDS011;59316;52.964;7.102;2023-02-02T09:38:43;3.60;;;0.95;;
70757;SDS011;59316;52.964;7.102;2023-02-02T09:48:59;3.25;;;1.20;;
70757;SDS011;59316;52.964;7.102;2023-02-02T09:54:19;7.63;;;1.20;;
70757;SDS011;59316;52.964;7.102;2023-02-02T09:59:33;2.92;;;1.27;;
70757;SDS011;59316;52.964;7.102;2023-02-02T10:04:41;3.92;;;1.00;;
70757;SDS011;59316;52.964;7.102;2023-02-02T10:15:14;2.95;;;1.35;;
70757;SDS011;59316;52.964;7.102;2023-02-02T10:25:44;3.65;;;1.10;;
70757;SDS011;59316;52.964;7.102;2023-02-02T10:30:51;6.80;;;1.20;;
70757;SDS011;59316;52.964;7.102;2023-02-02T10:46:50;2.88;;;1.10;;
70757;SDS011;59316;52.964;7.102;2023-02-02T10:52:13;5.53;;;1.00;;
70757;SDS011;59316;52.964;7.102;2023-02-02T10:57:18;3.22;;;0.90;;
70757;SDS011;59316;52.964;7.102;2023-02-02T11:02:27;4.80;;;1.10;;
70757;SDS011;59316;52.964;7.102;2023-02-02T11:07:30;4.90;;;1.57;;
70757;SDS011;59316;52.964;7.102;2023-02-02T11:12:33;5.45;;;1.30;;
70757;SDS011;59316;52.964;7.102;2023-02-02T11:22:37;4.55;;;1.45;;
70757;SDS011;59316;52.964;7.102;2023-02-02T11:27:40;3.07;;;1.13;;
70757;SDS011;59316;52.964;7.102;2023-02-02T11:32:43;4.18;;;1.35;;
70757;SDS011;59316;52.964;7.102;2023-02-02T11:37:55;5.93;;;1.45;;
70757;SDS011;59316;52.964;7.102;2023-02-02T11:43:01;3.28;;;1.35;;
70757;SDS011;59316;52.964;7.102;2023-02-02T11:48:13;4.93;;;1.20;;
70757;SDS011;59316;52.964;7.102;2023-02-02T11:53:32;4.53;;;1.48;;
70757;SDS011;59316;52.964;7.102;2023-02-02T11:58:44;6.28;;;1.75;;
70757;SDS011;59316;52.964;7.102;2023-02-02T12:03:47;5.45;;;1.80;;
70757;SDS011;59316;52.964;7.102;2023-02-02T12:08:57;7.43;;;1.58;;
70757;SDS011;59316;52.964;7.102;2023-02-02T12:29:30;3.38;;;1.60;;
70757;SDS011;59316;52.964;7.102;2023-02-02T13:15:33;2.55;;;1.10;;
70757;SDS011;59316;52.964;7.102;2023-02-02T13:20:37;4.53;;;1.20;;
70757;SDS011;59316;52.964;7.102;2023-02-02T13:25:52;3.17;;;1.10;;
70757;SDS011;59316;52.964;7.102;2023-02-02T13:30:55;3.63;;;1.10;;
70757;SDS011;59316;52.964;7.102;2023-02-02T13:35:59;3.85;;;1.10;;
70757;SDS011;59316;52.964;7.102;2023-02-02T13:41:04;5.05;;;1.08;;
70757;SDS011;59316;52.964;7.102;2023-02-02T13:51:20;4.28;;;1.02;;
70757;SDS011;59316;52.964;7.102;2023-02-02T14:01:45;7.35;;;1.00;;
70757;SDS011;59316;52.964;7.102;2023-02-02T14:06:53;5.07;;;1.10;;
70757;SDS011;59316;52.964;7.102;2023-02-02T14:11:57;3.28;;;1.17;;
70757;SDS011;59316;52.964;7.102;2023-02-02T14:47:54;5.57;;;1.08;;
70757;SDS011;59316;52.964;7.102;2023-02-02T15:03:32;9.00;;;1.75;;
70757;SDS011;59316;52.964;7.102;2023-02-02T15:08:35;8.88;;;1.70;;
70757;SDS011;59316;52.964;7.102;2023-02-02T15:13:36;5.55;;;1.45;;
70757;SDS011;59316;52.964;7.102;2023-02-02T15:18:40;6.60;;;1.70;;
70757;SDS011;59316;52.964;7.102;2023-02-02T15:23:44;9.85;;;2.33;;
70757;SDS011;59316;52.964;7.102;2023-02-02T15:33:49;6.13;;;3.05;;
70757;SDS011;59316;52.964;7.102;2023-02-02T15:38:53;9.25;;;3.70;;
70757;SDS011;59316;52.964;7.102;2023-02-02T15:43:55;9.00;;;3.95;;
70757;SDS011;59316;52.964;7.102;2023-02-02T15:54:35;12.52;;;6.07;;
70757;SDS011;59316;52.964;7.102;2023-02-02T15:59:38;9.97;;;5.30;;
70757;SDS011;59316;52.964;7.102;2023-02-02T16:04:41;14.35;;;5.60;;
70757;SDS011;59316;52.964;7.102;2023-02-02T16:09:43;11.73;;;5.60;;
70757;SDS011;59316;52.964;7.102;2023-02-02T16:14:47;16.35;;;5.68;;
70757;SDS011;59316;52.964;7.102;2023-02-02T16:19:49;11.02;;;5.63;;
70757;SDS011;59316;52.964;7.102;2023-02-02T16:24:57;17.90;;;6.85;;
70757;SDS011;59316;52.964;7.102;2023-02-02T16:30:07;13.98;;;7.18;;
70757;SDS011;59316;52.964;7.102;2023-02-02T16:40:30;17.08;;;7.38;;
70757;SDS011;59316;52.964;7.102;2023-02-02T16:45:42;14.77;;;6.78;;
70757;SDS011;59316;52.964;7.102;2023-02-02T16:50:46;13.30;;;6.10;;
70757;SDS011;59316;52.964;7.102;2023-02-02T16:55:51;16.40;;;6.70;;
70757;SDS011;59316;52.964;7.102;2023-02-02T17:06:06;15.98;;;6.55;;
70757;SDS011;59316;52.964;7.102;2023-02-02T17:16:40;14.65;;;6.50;;
70757;SDS011;59316;52.964;7.102;2023-02-02T17:21:42;13.57;;;6.00;;
70757;SDS011;59316;52.964;7.102;2023-02-02T17:26:44;15.35;;;6.40;;
70757;SDS011;59316;52.964;7.102;2023-02-02T17:31:46;17.80;;;5.90;;
70757;SDS011;59316;52.964;7.102;2023-02-02T17:36:48;13.38;;;6.18;;
70757;SDS011;59316;52.964;7.102;2023-02-02T17:41:50;12.73;;;5.45;;
70757;SDS011;59316;52.964;7.102;2023-02-02T17:46:52;12.07;;;6.32;;
70757;SDS011;59316;52.964;7.102;2023-02-02T17:51:53;10.02;;;5.47;;
70757;SDS011;59316;52.964;7.102;2023-02-02T17:56:55;17.95;;;6.50;;
70757;SDS011;59316;52.964;7.102;2023-02-02T18:01:57;17.83;;;6.70;;
70757;SDS011;59316;52.964;7.102;2023-02-02T18:06:59;17.48;;;6.82;;
70757;SDS011;59316;52.964;7.102;2023-02-02T18:12:01;18.60;;;7.38;;
70757;SDS011;59316;52.964;7.102;2023-02-02T18:17:03;22.50;;;9.20;;
70757;SDS011;59316;52.964;7.102;2023-02-02T18:22:04;22.08;;;8.13;;
70757;SDS011;59316;52.964;7.102;2023-02-02T18:27:06;23.33;;;8.60;;
70757;SDS011;59316;52.964;7.102;2023-02-02T18:32:08;23.52;;;9.10;;
70757;SDS011;59316;52.964;7.102;2023-02-02T18:37:10;29.02;;;9.80;;
70757;SDS011;59316;52.964;7.102;2023-02-02T18:42:12;27.30;;;9.57;;
70757;SDS011;59316;52.964;7.102;2023-02-02T18:47:14;28.45;;;10.15;;
70757;SDS011;59316;52.964;7.102;2023-02-02T18:52:16;24.20;;;8.70;;
70757;SDS011;59316;52.964;7.102;2023-02-02T18:57:17;21.67;;;8.77;;
70757;SDS011;59316;52.964;7.102;2023-02-02T19:02:19;25.23;;;9.38;;
70757;SDS011;59316;52.964;7.102;2023-02-02T19:07:21;23.20;;;8.70;;
70757;SDS011;59316;52.964;7.102;2023-02-02T19:12:23;23.55;;;8.57;;
70757;SDS011;59316;52.964;7.102;2023-02-02T19:17:25;23.73;;;7.63;;
70757;SDS011;59316;52.964;7.102;2023-02-02T19:22:27;22.85;;;8.27;;
70757;SDS011;59316;52.964;7.102;2023-02-02T19:27:29;22.35;;;7.53;;
70757;SDS011;59316;52.964;7.102;2023-02-02T19:32:31;18.67;;;7.68;;
70757;SDS011;59316;52.964;7.102;2023-02-02T19:37:35;25.70;;;9.23;;
70757;SDS011;59316;52.964;7.102;2023-02-02T19:43:13;27.48;;;9.15;;
70757;SDS011;59316;52.964;7.102;2023-02-02T19:48:13;23.63;;;8.40;;
70757;SDS011;59316;52.964;7.102;2023-02-02T19:58:25;26.17;;;8.05;;
70757;SDS011;59316;52.964;7.102;2023-02-02T20:03:40;23.55;;;7.60;;
70757;SDS011;59316;52.964;7.102;2023-02-02T20:08:42;22.38;;;7.78;;
70757;SDS011;59316;52.964;7.102;2023-02-02T20:13:45;18.45;;;7.18;;
70757;SDS011;59316;52.964;7.102;2023-02-02T20:18:48;18.77;;;6.30;;
70757;SDS011;59316;52.964;7.102;2023-02-02T20:23:49;17.10;;;6.10;;
70757;SDS011;59316;52.964;7.102;2023-02-02T20:28:52;19.70;;;5.80;;
70757;SDS011;59316;52.964;7.102;2023-02-02T20:33:55;28.70;;;6.28;;
70757;SDS011;59316;52.964;7.102;2023-02-02T20:39:11;17.48;;;5.32;;
70757;SDS011;59316;52.964;7.102;2023-02-02T20:44:16;17.42;;;4.80;;
70757;SDS011;59316;52.964;7.102;2023-02-02T20:49:18;16.08;;;5.47;;
70757;SDS011;59316;52.964;7.102;2023-02-02T20:54:19;21.42;;;6.78;;
70757;SDS011;59316;52.964;7.102;2023-02-02T20:59:21;13.02;;;5.00;;
70757;SDS011;59316;52.964;7.102;2023-02-02T21:04:23;16.20;;;5.53;;
70757;SDS011;59316;52.964;7.102;2023-02-02T21:09:25;21.02;;;7.10;;
70757;SDS011;59316;52.964;7.102;2023-02-02T21:14:27;15.40;;;6.38;;
70757;SDS011;59316;52.964;7.102;2023-02-02T21:19:29;30.55;;;7.10;;
70757;SDS011;59316;52.964;7.102;2023-02-02T21:24:31;16.08;;;6.57;;
70757;SDS011;59316;52.964;7.102;2023-02-02T21:29:32;22.27;;;6.50;;
70757;SDS011;59316;52.964;7.102;2023-02-02T21:34:34;18.20;;;6.50;;
70757;SDS011;59316;52.964;7.102;2023-02-02T21:39:36;17.30;;;6.40;;
70757;SDS011;59316;52.964;7.102;2023-02-02T21:44:39;17.30;;;7.05;;
70757;SDS011;59316;52.964;7.102;2023-02-02T21:49:42;17.65;;;7.38;;
70757;SDS011;59316;52.964;7.102;2023-02-02T21:54:44;11.45;;;5.88;;
70757;SDS011;59316;52.964;7.102;2023-02-02T21:59:55;17.87;;;5.80;;
70757;SDS011;59316;52.964;7.102;2023-02-02T22:04:58;16.33;;;6.35;;
70757;SDS011;59316;52.964;7.102;2023-02-02T22:10:00;12.50;;;5.38;;
70757;SDS011;59316;52.964;7.102;2023-02-02T22:15:02;8.52;;;4.45;;
70757;SDS011;59316;52.964;7.102;2023-02-02T22:20:18;12.10;;;4.90;;
70757;SDS011;59316;52.964;7.102;2023-02-02T22:25:33;11.73;;;4.53;;
70757;SDS011;59316;52.964;7.102;2023-02-02T22:30:37;13.30;;;4.20;;
70757;SDS011;59316;52.964;7.102;2023-02-02T22:35:39;10.95;;;3.58;;
70757;SDS011;59316;52.964;7.102;2023-02-02T22:40:41;9.77;;;3.43;;
70757;SDS011;59316;52.964;7.102;2023-02-02T22:45:43;9.18;;;3.13;;
70757;SDS011;59316;52.964;7.102;2023-02-02T22:50:45;6.28;;;3.03;;
70757;SDS011;59316;52.964;7.102;2023-02-02T22:55:47;8.00;;;2.55;;
70757;SDS011;59316;52.964;7.102;2023-02-02T23:00:49;10.15;;;2.40;;
70757;SDS011;59316;52.964;7.102;2023-02-02T23:05:51;7.43;;;2.22;;
70757;SDS011;59316;52.964;7.102;2023-02-02T23:10:52;5.80;;;1.83;;
70757;SDS011;59316;52.964;7.102;2023-02-02T23:15:54;6.35;;;1.75;;
70757;SDS011;59316;52.964;7.102;2023-02-02T23:20:56;6.28;;;1.95;;
70757;SDS011;59316;52.964;7.102;2023-02-02T23:25:58;5.40;;;1.80;;
70757;SDS011;59316;52.964;7.102;2023-02-02T23:31:00;6.15;;;1.90;;
70757;SDS011;59316;52.964;7.102;2023-02-02T23:36:02;5.88;;;1.75;;
70757;SDS011;59316;52.964;7.102;2023-02-02T23:41:04;6.30;;;1.80;;
70757;SDS011;59316;52.964;7.102;2023-02-02T23:46:06;6.43;;;1.60;;
70757;SDS011;59316;52.964;7.102;2023-02-02T23:51:08;9.45;;;1.95;;
70757;SDS011;59316;52.964;7.102;2023-02-02T23:56:10;3.55;;;1.50;;
